Kajaani, Finland

2:41 AM EET on December 18, 2014 (GMT +0200)
Kajaani | Change Station
CLOSE
Current Station
Airport
Location: Kajaani,
Elevation: 446 ft
Nearby Weather Stations

Elev 446 ft 64.28 °N, 27.68 °E | Updated 21 minutes ago

Overcast
Overcast
28 °F
Feels Like 25 °F
N
4
Wind Variable Wind from NW

Today
High -- | Low -- °F
--% Chance of Precip.
Yesterday
High -- | Low -- °F
Precip. -- in
10:03 AM 2:07 PM
Waning Crescent, 18% visible
Pressure 29.24 in
Visibility 6.2 miles
Clouds Overcast 600 ft
Windchill 25 °F
Dew Point 27 °F
Humidity 93%
Rainfall 0.00 in
Snow Depth Not available.
UV 0 out of 12
Pollen Not available.
Air Quality Not available.
Flu Activity Not available.
METAR EFKI 180020Z AUTO 32003KT 9999 OVC006 M02/M03 Q0990

More Conditions Fewer Conditions

Pressure 29.24 in
Visibility 6.2 miles
Clouds Overcast 600 ft
Windchill 25 °F
Dew Point 27 °F
Humidity 93%
Rainfall 0.00 in
Snow Depth Not available.
UV 0 out of 12
Pollen Not available.
Air Quality Not available.
Flu Activity Not available.
METAR EFKI 180020Z AUTO 32003KT 9999 OVC006 M02/M03 Q0990

More Conditions Fewer Conditions

10-Day Weather Forecast

Almanac

Astronomy

Dec. 18, 2014 Rise Set
Actual Time
Civil Twilight
Nautical Twilight
Astronomical Twilight
Moon
Length of Visible Light
Length of Day
Tomorrow will be .
, % of the Moon is Illuminated

Today's Extremes

Country Highs Country Lows

Community

WunderPhotos

Upload Photos

1,778,837 photos uploaded!

WunderBlogs® & News

Nearby

Air Quality

  Air Quality AQ Index Pollutant
Not available.

Snow Depth

Station Depth Elevation

Earthquake Activity

City Distance Mag. Time & Date
Minimum magnitude displayed is 2.5.

Coastal Water Temperatures

Place Temperature

Nearby Weather Stations